Latest Weather Observations for Kurnell

IDN60801

Issued at 11:35 am EST Wednesday 3 September 2014 (issued every 30 minutes, with the page automatically refreshed every 10 minutes)

About weather observations | Map of weather stations | Latest weather observations for NSW | Other Formats
Station Details ID: 066043 Name: KURNELL AWS Lat: -34.00 Lon: 151.21 Height: 4.0 m
Data from the previous 72 hours. | See also: Recent months for locations in New South Wales
Date/Time
EST
Temp
°C
App
Temp
°C
Dew
Point
Rel
Hum
%
Delta-T
°C
Wind Press
QNH
hPa
Press
MSL
hPa
Rain
since 9 am
mm
Dir
 
Spd
km/h
Gust
km/h
Spd
kts
Gust
kts
03/11:35am - - - - - SW 50 70 27 38 - - -
03/11:30am - - - - - SW 52 67 28 36 - - -
03/11:00am - - - - - SSW 56 74 30 40 - - -
03/10:30am - - - - - SSW 54 78 29 42 - - -
03/10:00am - - - - - SSW 56 78 30 42 - - -
03/09:30am - - - - - SW 54 74 29 40 - - -
03/09:00am - - - - - SSW 56 74 30 40 - - -
03/08:30am - - - - - SSW 54 83 29 45 - - -
03/08:00am - - - - - SW 56 87 30 47 - - -
03/07:30am - - - - - SW 52 76 28 41 - - -
03/07:00am - - - - - SW 50 72 27 39 - - -
03/06:30am - - - - - SW 57 78 31 42 - - -
03/06:00am - - - - - SW 54 76 29 41 - - -
03/05:30am - - - - - SW 50 70 27 38 - - -
03/05:00am - - - - - SW 50 69 27 37 - - -
03/04:30am - - - - - SW 46 74 25 40 - - -
03/04:00am - - - - - SW 48 70 26 38 - - -
03/03:30am - - - - - SSW 57 80 31 43 - - -
03/03:00am - - - - - SW 54 83 29 45 - - -
03/02:56am - - - - - SW 52 83 28 45 - - -
03/02:33am - - - - - SW 41 59 22 32 - - -
03/02:30am - - - - - SW 43 59 23 32 - - -
03/02:02am - - - - - WSW 44 63 24 34 - - -
03/02:00am - - - - - WSW 43 56 23 30 - - -
03/01:33am - - - - - SW 41 59 22 32 - - -
03/01:30am - - - - - SW 43 59 23 32 - - -
03/01:13am - - - - - SW 37 56 20 30 - - -
03/01:00am - - - - - WSW 33 44 18 24 - - -
03/12:30am - - - - - WSW 41 59 22 32 - - -
03/12:08am - - - - - WSW 33 57 18 31 - - -
03/12:00am - - - - - WSW 35 50 19 27 - - -
 
Date/Time
EST
Temp
°C
App
Temp
°C
Dew
Point
Rel
Hum
%
Delta-T
°C
Wind Press
QNH
hPa
Press
MSL
hPa
Rain
since 9 am
mm
Dir
 
Spd
km/h
Gust
km/h
Spd
kts
Gust
kts
02/11:31pm - - - - - WSW 33 54 18 29 - - -
02/11:30pm - - - - - WSW 33 44 18 24 - - -
02/11:01pm - - - - - WSW 37 56 20 30 - - -
02/11:00pm - - - - - WSW 37 52 20 28 - - -
02/10:30pm - - - - - WSW 35 46 19 25 - - -
02/10:00pm - - - - - WSW 37 44 20 24 - - -
02/09:30pm - - - - - WSW 39 56 21 30 - - -
02/09:02pm - - - - - WSW 35 54 19 29 - - -
02/09:00pm - - - - - WSW 35 50 19 27 - - -
02/08:30pm - - - - - WSW 33 52 18 28 - - -
02/08:28pm - - - - - WSW 33 52 18 28 - - -
02/08:00pm - - - - - WSW 32 48 17 26 - - -
02/07:53pm - - - - - WSW 30 48 16 26 - - -
02/07:30pm - - - - - WSW 28 37 15 20 - - -
02/07:00pm - - - - - SSW 28 41 15 22 - - -
02/06:30pm - - - - - SW 22 30 12 16 - - -
02/06:00pm - - - - - WSW 26 35 14 19 - - -
02/05:30pm - - - - - WSW 30 39 16 21 - - -
02/05:00pm - - - - - W 33 41 18 22 - - -
02/04:30pm - - - - - WSW 19 26 10 14 - - -
02/04:00pm - - - - - SW 20 26 11 14 - - -
02/03:30pm - - - - - SW 24 33 13 18 - - -
02/03:00pm - - - - - SW 28 35 15 19 - - -
02/02:30pm - - - - - SW 30 41 16 22 - - -
02/02:00pm - - - - - SSW 37 50 20 27 - - -
02/01:30pm - - - - - SSW 28 35 15 19 - - -
02/01:00pm - - - - - SSW 33 43 18 23 - - -
02/12:30pm - - - - - SSW 20 32 11 17 - - -
02/12:00pm - - - - - W 24 33 13 18 - - -
02/11:30am - - - - - SSW 17 24 9 13 - - -
02/11:00am - - - - - SW 17 26 9 14 - - -
02/10:30am - - - - - SW 28 35 15 19 - - -
02/10:19am - - - - - SSW 32 41 17 22 - - -
02/10:00am - - - - - WSW 17 22 9 12 - - -
02/09:30am - - - - - WSW 17 22 9 12 - - -
02/09:00am - - - - - WSW 11 13 6 7 - - -
02/08:30am - - - - - WNW 13 17 7 9 - - -
02/08:00am - - - - - WNW 17 20 9 11 - - -
02/07:30am - - - - - NW 19 24 10 13 - - -
02/07:00am - - - - - WNW 28 33 15 18 - - -
02/06:30am - - - - - W 28 33 15 18 - - -
02/06:00am - - - - - W 32 39 17 21 - - -
02/05:30am - - - - - W 26 33 14 18 - - -
02/05:00am - - - - - W 26 32 14 17 - - -
02/04:30am - - - - - WSW 15 19 8 10 - - -
02/04:00am - - - - - W 19 28 10 15 - - -
02/03:30am - - - - - W 15 17 8 9 - - -
02/03:00am - - - - - W 13 15 7 8 - - -
02/02:30am - - - - - W 7 9 4 5 - - -
02/02:00am - - - - - WNW 9 11 5 6 - - -
02/01:30am - - - - - N 11 13 6 7 - - -
02/01:00am - - - - - NNE 15 17 8 9 - - -
02/12:30am - - - - - NNE 13 15 7 8 - - -
02/12:00am - - - - - NNE 9 13 5 7 - - -
 
Date/Time
EST
Temp
°C
App
Temp
°C
Dew
Point
Rel
Hum
%
Delta-T
°C
Wind Press
QNH
hPa
Press
MSL
hPa
Rain
since 9 am
mm
Dir
 
Spd
km/h
Gust
km/h
Spd
kts
Gust
kts
01/11:30pm - - - - - N 11 15 6 8 - - -
01/11:00pm - - - - - N 15 17 8 9 - - -
01/10:30pm - - - - - N 13 19 7 10 - - -
01/10:00pm - - - - - N 13 15 7 8 - - -
01/09:30pm - - - - - N 15 19 8 10 - - -
01/09:00pm - - - - - N 15 19 8 10 - - -
01/08:30pm - - - - - N 9 11 5 6 - - -
01/08:00pm - - - - - N 11 13 6 7 - - -
01/07:30pm - - - - - N 9 11 5 6 - - -
01/07:00pm - - - - - WNW 9 13 5 7 - - -
01/06:30pm - - - - - NE 19 24 10 13 - - -
01/06:00pm - - - - - NE 22 30 12 16 - - -
01/05:30pm - - - - - NE 26 30 14 16 - - -
01/05:00pm - - - - - NE 28 33 15 18 - - -
01/04:30pm - - - - - NE 28 32 15 17 - - -
01/04:00pm - - - - - NE 26 30 14 16 - - -
01/03:30pm - - - - - ENE 17 22 9 12 - - -
01/03:00pm - - - - - ENE 24 28 13 15 - - -
01/02:30pm - - - - - ENE 24 28 13 15 - - -
01/02:00pm - - - - - ENE 19 22 10 12 - - -
01/01:30pm - - - - - ENE 11 13 6 7 - - -
01/01:00pm - - - - - ENE 11 13 6 7 - - -
01/12:30pm - - - - - NNW 11 15 6 8 - - -
01/12:00pm - - - - - NW 9 9 5 5 - - -
01/11:30am - - - - - NNW 6 7 3 4 - - -
01/11:00am - - - - - NNW 7 11 4 6 - - -
01/10:30am - - - - - NW 9 13 5 7 - - -
01/10:00am - - - - - NW 13 17 7 9 - - -
01/09:30am - - - - - NNW 15 17 8 9 - - -
01/09:00am - - - - - NW 19 22 10 12 - - -
01/08:30am - - - - - NW 15 19 8 10 - - -
01/08:00am - - - - - W 19 22 10 12 - - -
01/07:30am - - - - - WNW 17 19 9 10 - - -
01/07:00am - - - - - NW 17 19 9 10 - - -
01/06:30am - - - - - NW 17 20 9 11 - - -
01/06:00am - - - - - NNW 15 20 8 11 - - -
01/05:30am - - - - - NNW 17 20 9 11 - - -
01/05:00am - - - - - N 13 17 7 9 - - -
01/04:30am - - - - - NNW 13 17 7 9 - - -
01/04:00am - - - - - NNW 11 15 6 8 - - -
01/03:30am - - - - - NNW 13 15 7 8 - - -
01/03:00am - - - - - NNW 13 17 7 9 - - -
01/02:30am - - - - - NNW 13 17 7 9 - - -
01/02:00am - - - - - N 11 13 6 7 - - -
01/01:30am - - - - - N 9 11 5 6 - - -
01/01:00am - - - - - NNW 7 9 4 5 - - -
01/12:30am - - - - - N 7 9 4 5 - - -
01/12:00am - - - - - NW 7 9 4 5 - - -
 
Date/Time
EST
Temp
°C
App
Temp
°C
Dew
Point
Rel
Hum
%
Delta-T
°C
Wind Press
QNH
hPa
Press
MSL
hPa
Rain
since 9 am
mm
Dir
 
Spd
km/h
Gust
km/h
Spd
kts
Gust
kts
31/11:30pm - - - - - NNW 7 9 4 5 - - -
31/11:00pm - - - - - W 7 9 4 5 - - -
31/10:30pm - - - - - WSW 9 15 5 8 - - -
31/10:00pm - - - - - W 11 17 6 9 - - -
31/09:30pm - - - - - CALM 0 0 0 0 - - -
31/09:00pm - - - - - CALM 0 0 0 0 - - -
31/08:30pm - - - - - CALM 0 0 0 0 - - -
31/08:00pm - - - - - ENE 4 6 2 3 - - -
31/07:30pm - - - - - ENE 6 7 3 4 - - -
31/07:00pm - - - - - E 7 9 4 5 - - -
31/06:30pm - - - - - E 11 13 6 7 - - -
31/06:00pm - - - - - E 9 13 5 7 - - -
31/05:30pm - - - - - ESE 9 13 5 7 - - -
31/05:00pm - - - - - ESE 13 17 7 9 - - -
31/04:30pm - - - - - SE 17 19 9 10 - - -
31/04:00pm - - - - - SE 17 22 9 12 - - -
31/03:30pm - - - - - SE 17 24 9 13 - - -
31/03:00pm - - - - - SE 17 20 9 11 - - -
31/02:30pm - - - - - SE 17 22 9 12 - - -
31/02:00pm - - - - - SE 17 20 9 11 - - -
31/01:30pm - - - - - SE 19 24 10 13 - - -
31/01:00pm - - - - - SSE 15 20 8 11 - - -
31/12:30pm - - - - - S 17 20 9 11 - - -
31/12:00pm - - - - - S 17 24 9 13 - - -

Other Formats:

Comma delimited format used in spreadsheet applications
http://www.bom.gov.au/fwo/IDN60801/IDN60801.95756.axf

JavaScript Object Notation format (JSON) in row-major order
http://www.bom.gov.au/fwo/IDN60801/IDN60801.95756.json